createdAt,value
2023-03-23T16:00:15.982Z,14.40
2023-03-23T16:02:44.575Z,14.30
2023-03-23T16:05:17.219Z,14.20
2023-03-23T16:07:46.883Z,14.10
2023-03-23T16:10:19.145Z,14.00
2023-03-23T16:12:47.718Z,14.00
2023-03-23T16:15:16.716Z,13.90
2023-03-23T16:17:46.722Z,13.80
2023-03-23T16:20:16.401Z,13.80
2023-03-23T16:22:46.028Z,13.80
2023-03-23T16:25:15.357Z,13.90
2023-03-23T16:27:44.500Z,13.90
2023-03-23T16:30:16.713Z,13.90
2023-03-23T16:32:47.716Z,14.00
2023-03-23T16:35:16.643Z,14.00
2023-03-23T16:37:50.459Z,14.00
2023-03-23T16:40:20.176Z,14.00
2023-03-23T16:42:48.750Z,14.00
2023-03-23T16:45:17.541Z,13.90
2023-03-23T16:47:46.162Z,13.90
2023-03-23T16:50:18.985Z,13.90
2023-03-23T16:52:51.108Z,13.80
2023-03-23T16:55:19.198Z,13.80
2023-03-23T16:57:47.511Z,13.70
2023-03-23T17:00:20.080Z,13.70
2023-03-23T17:02:50.474Z,13.60
2023-03-23T17:05:19.614Z,13.50
2023-03-23T17:07:48.550Z,13.40
2023-03-23T17:10:19.455Z,13.30
2023-03-23T17:12:47.523Z,13.20
2023-03-23T17:15:15.639Z,13.20
2023-03-23T17:17:44.255Z,13.00
2023-03-23T17:20:13.422Z,13.00
2023-03-23T17:22:41.676Z,12.90
2023-03-23T17:25:10.517Z,12.90
2023-03-23T17:27:41.193Z,12.80
2023-03-23T17:30:11.072Z,12.80
2023-03-23T17:32:39.223Z,12.80
2023-03-23T17:35:08.278Z,12.70
2023-03-23T17:37:37.955Z,12.70
2023-03-23T17:40:10.209Z,12.70
2023-03-23T17:42:43.477Z,12.70
2023-03-23T17:45:13.740Z,12.70
2023-03-23T17:47:41.800Z,12.70
2023-03-23T17:50:11.797Z,12.60
2023-03-23T17:52:41.074Z,12.60
2023-03-23T17:55:09.923Z,12.60
2023-03-23T17:57:39.647Z,12.60
2023-03-23T18:00:10.184Z,12.60
2023-03-23T18:02:41.692Z,12.60
2023-03-23T18:05:10.824Z,12.60
2023-03-23T18:07:39.642Z,12.50
2023-03-23T18:10:12.956Z,12.60
2023-03-23T18:12:43.155Z,12.50
2023-03-23T18:15:12.201Z,12.50
2023-03-23T18:17:40.388Z,12.50
2023-03-23T18:20:09.668Z,12.60
2023-03-23T18:22:38.167Z,12.60
2023-03-23T18:25:07.387Z,12.50
2023-03-23T18:27:36.100Z,12.50
2023-03-23T18:30:06.822Z,12.50
2023-03-23T18:32:36.364Z,12.40
2023-03-23T18:35:05.126Z,12.40
2023-03-23T18:37:34.326Z,12.30
2023-03-23T18:40:02.734Z,12.30
2023-03-23T18:42:30.803Z,12.30
2023-03-23T18:45:00.001Z,12.30
2023-03-23T18:47:29.858Z,12.20
2023-03-23T18:49:59.517Z,12.20
2023-03-23T18:52:30.683Z,12.10
2023-03-23T18:55:01.777Z,12.00
2023-03-23T18:57:30.176Z,12.00
2023-03-23T18:59:58.339Z,11.90
2023-03-23T19:02:26.658Z,11.90
2023-03-23T19:04:56.941Z,11.80
2023-03-23T19:07:24.898Z,11.70
2023-03-23T19:09:52.868Z,11.70
2023-03-23T19:12:22.643Z,11.80
2023-03-23T19:14:51.116Z,11.80
2023-03-23T19:17:19.259Z,11.80
2023-03-23T19:19:47.277Z,11.90
2023-03-23T19:22:16.937Z,11.90
2023-03-23T19:24:44.973Z,12.00
2023-03-23T19:27:13.029Z,12.00
2023-03-23T19:29:41.114Z,12.00
2023-03-23T19:32:09.425Z,12.00
2023-03-23T19:34:39.083Z,12.00
2023-03-23T19:37:11.444Z,12.00
2023-03-23T19:39:42.964Z,12.00
2023-03-23T19:42:11.293Z,12.00
2023-03-23T19:44:39.400Z,12.00
2023-03-23T19:47:07.649Z,11.90
2023-03-23T19:49:35.696Z,12.00
2023-03-23T19:52:07.931Z,11.90
2023-03-23T19:54:40.275Z,11.90
2023-03-23T19:57:10.637Z,11.90
2023-03-23T19:59:39.388Z,11.90
2023-03-23T20:02:07.900Z,11.90
2023-03-23T20:04:39.936Z,11.90
2023-03-23T20:07:08.553Z,11.90
2023-03-23T20:09:38.473Z,11.90
2023-03-23T20:12:10.924Z,11.90
2023-03-23T20:14:44.340Z,11.90
2023-03-23T20:17:14.430Z,11.90
2023-03-23T20:19:43.014Z,11.90
2023-03-23T20:22:11.415Z,11.90
2023-03-23T20:24:39.479Z,12.00
2023-03-23T20:27:08.010Z,11.90
2023-03-23T20:29:37.570Z,12.00
2023-03-23T20:32:07.490Z,11.90
2023-03-23T20:34:36.187Z,11.90
2023-03-23T20:37:05.074Z,11.90
2023-03-23T20:39:34.560Z,11.90
2023-03-23T20:42:05.707Z,11.90
2023-03-23T20:44:35.375Z,12.00
2023-03-23T20:47:05.261Z,11.90
2023-03-23T20:49:35.126Z,11.90
2023-03-23T20:52:03.504Z,11.90
2023-03-23T20:54:32.132Z,11.90
2023-03-23T20:57:00.443Z,11.90
2023-03-23T20:59:29.088Z,11.90
2023-03-23T21:01:57.405Z,11.80
2023-03-23T21:04:28.054Z,11.80
2023-03-23T21:06:57.194Z,11.90
2023-03-23T21:09:26.296Z,11.80
2023-03-23T21:11:54.563Z,11.80
2023-03-23T21:14:22.784Z,11.80
2023-03-23T21:16:51.636Z,11.80
2023-03-23T21:19:20.610Z,11.80
2023-03-23T21:21:55.383Z,11.80
2023-03-23T21:24:28.275Z,11.80
2023-03-23T21:27:00.821Z,11.80
2023-03-23T21:29:29.381Z,11.80
2023-03-23T21:34:29.168Z,11.80
2023-03-23T21:36:58.791Z,11.80
2023-03-23T21:39:28.088Z,11.80
2023-03-23T21:41:59.398Z,11.90
2023-03-23T21:44:27.662Z,11.80
2023-03-23T21:46:55.658Z,11.80
2023-03-23T21:49:23.661Z,11.80
2023-03-23T21:51:51.916Z,11.80
2023-03-23T21:54:21.317Z,11.70
2023-03-23T21:56:49.516Z,11.70
2023-03-23T21:59:17.544Z,11.70
2023-03-23T22:01:45.539Z,11.70
2023-03-23T22:04:13.664Z,11.70
2023-03-23T22:06:42.340Z,11.60
2023-03-23T22:09:10.855Z,11.60
2023-03-23T22:11:40.888Z,11.60
2023-03-23T22:14:09.541Z,11.60
2023-03-23T22:16:37.770Z,11.60
2023-03-23T22:19:06.802Z,11.60
2023-03-23T22:21:35.268Z,11.60
2023-03-23T22:24:03.898Z,11.60
2023-03-23T22:26:32.268Z,11.60
2023-03-23T22:29:02.524Z,11.50
2023-03-23T22:31:34.020Z,11.50
2023-03-23T22:34:03.012Z,11.50
2023-03-23T22:36:33.285Z,11.50
2023-03-23T22:39:04.602Z,11.50
2023-03-23T22:41:36.940Z,11.50
2023-03-23T22:44:09.100Z,11.50
2023-03-23T22:46:37.250Z,11.40
2023-03-23T22:49:05.294Z,11.40
2023-03-23T22:51:33.321Z,11.40
2023-03-23T22:54:01.385Z,11.50
2023-03-23T22:56:31.630Z,11.40
2023-03-23T22:59:00.266Z,11.40
2023-03-23T23:01:29.934Z,11.50
2023-03-23T23:04:00.324Z,11.50
2023-03-23T23:06:29.998Z,11.50
2023-03-23T23:08:58.229Z,11.50
2023-03-23T23:11:27.726Z,11.40
2023-03-23T23:13:56.331Z,11.40
2023-03-23T23:16:26.238Z,11.40
2023-03-23T23:18:56.311Z,11.30
2023-03-23T23:21:26.610Z,11.20
2023-03-23T23:23:55.039Z,11.20
2023-03-23T23:26:23.425Z,11.20
2023-03-23T23:28:52.816Z,11.20
2023-03-23T23:31:26.540Z,11.20
2023-03-23T23:33:58.786Z,11.10
2023-03-23T23:36:29.866Z,11.10
2023-03-23T23:38:59.365Z,11.10
2023-03-23T23:41:28.180Z,11.00
2023-03-23T23:43:56.614Z,11.00
2023-03-23T23:46:24.702Z,11.00
2023-03-23T23:48:52.961Z,11.00
2023-03-23T23:51:27.309Z,11.10
2023-03-23T23:53:59.293Z,11.00
2023-03-23T23:56:27.946Z,11.00
2023-03-23T23:58:56.374Z,11.00
